sensor_id;sensor_type;location;lat;lon;timestamp;temperature;humidity
16517;DHT22;8371;52.272;9.746;2024-03-02T00:00:22;10.70;68.00
16517;DHT22;8371;52.272;9.746;2024-03-02T00:02:49;10.70;68.00
16517;DHT22;8371;52.272;9.746;2024-03-02T00:05:17;10.70;68.20
16517;DHT22;8371;52.272;9.746;2024-03-02T00:07:44;10.70;68.20
16517;DHT22;8371;52.272;9.746;2024-03-02T00:10:13;10.80;68.30
16517;DHT22;8371;52.272;9.746;2024-03-02T00:12:39;10.70;68.40
16517;DHT22;8371;52.272;9.746;2024-03-02T00:15:13;10.70;68.40
16517;DHT22;8371;52.272;9.746;2024-03-02T00:17:34;10.70;68.40
16517;DHT22;8371;52.272;9.746;2024-03-02T00:20:00;10.70;68.50
16517;DHT22;8371;52.272;9.746;2024-03-02T00:22:27;10.70;68.50
16517;DHT22;8371;52.272;9.746;2024-03-02T00:24:53;10.70;68.50
16517;DHT22;8371;52.272;9.746;2024-03-02T00:27:19;10.80;68.80
16517;DHT22;8371;52.272;9.746;2024-03-02T00:29:45;10.80;68.60
16517;DHT22;8371;52.272;9.746;2024-03-02T00:32:16;10.80;68.70
16517;DHT22;8371;52.272;9.746;2024-03-02T00:34:41;10.80;68.70
16517;DHT22;8371;52.272;9.746;2024-03-02T00:37:08;10.80;68.80
16517;DHT22;8371;52.272;9.746;2024-03-02T00:39:34;10.80;68.80
16517;DHT22;8371;52.272;9.746;2024-03-02T00:41:59;10.80;68.90
16517;DHT22;8371;52.272;9.746;2024-03-02T00:44:25;10.70;68.80
16517;DHT22;8371;52.272;9.746;2024-03-02T00:46:52;10.80;68.90
16517;DHT22;8371;52.272;9.746;2024-03-02T00:49:21;10.80;68.30
16517;DHT22;8371;52.272;9.746;2024-03-02T00:51:48;10.80;69.00
16517;DHT22;8371;52.272;9.746;2024-03-02T00:54:15;10.80;69.00
16517;DHT22;8371;52.272;9.746;2024-03-02T00:56:41;10.80;69.00
16517;DHT22;8371;52.272;9.746;2024-03-02T00:59:09;10.80;69.10
16517;DHT22;8371;52.272;9.746;2024-03-02T01:01:35;10.80;69.10
16517;DHT22;8371;52.272;9.746;2024-03-02T01:04:01;10.80;69.10
16517;DHT22;8371;52.272;9.746;2024-03-02T01:06:26;10.80;69.10
16517;DHT22;8371;52.272;9.746;2024-03-02T01:08:53;10.80;69.20
16517;DHT22;8371;52.272;9.746;2024-03-02T01:11:18;10.80;69.20
16517;DHT22;8371;52.272;9.746;2024-03-02T01:13:46;10.80;69.20
16517;DHT22;8371;52.272;9.746;2024-03-02T01:16:12;10.70;69.20
16517;DHT22;8371;52.272;9.746;2024-03-02T01:18:38;10.80;69.20
16517;DHT22;8371;52.272;9.746;2024-03-02T01:21:03;10.70;69.40
16517;DHT22;8371;52.272;9.746;2024-03-02T01:23:29;10.70;69.20
16517;DHT22;8371;52.272;9.746;2024-03-02T01:25:55;10.70;69.40
16517;DHT22;8371;52.272;9.746;2024-03-02T01:28:21;10.80;69.40
16517;DHT22;8371;52.272;9.746;2024-03-02T01:30:47;10.70;69.50
16517;DHT22;8371;52.272;9.746;2024-03-02T01:33:13;10.70;69.50
16517;DHT22;8371;52.272;9.746;2024-03-02T01:35:38;10.70;69.50
16517;DHT22;8371;52.272;9.746;2024-03-02T01:38:04;10.70;69.60
16517;DHT22;8371;52.272;9.746;2024-03-02T01:40:34;10.70;70.40
16517;DHT22;8371;52.272;9.746;2024-03-02T01:43:00;10.70;69.60
16517;DHT22;8371;52.272;9.746;2024-03-02T01:45:25;10.70;69.60
16517;DHT22;8371;52.272;9.746;2024-03-02T01:47:52;10.70;69.70
16517;DHT22;8371;52.272;9.746;2024-03-02T01:50:33;10.70;69.70
16517;DHT22;8371;52.272;9.746;2024-03-02T01:52:59;10.70;69.70
16517;DHT22;8371;52.272;9.746;2024-03-02T01:55:25;10.70;69.70
16517;DHT22;8371;52.272;9.746;2024-03-02T01:57:52;10.70;69.70
16517;DHT22;8371;52.272;9.746;2024-03-02T02:00:20;10.70;69.80
16517;DHT22;8371;52.272;9.746;2024-03-02T02:02:47;10.70;69.90
16517;DHT22;8371;52.272;9.746;2024-03-02T02:05:14;10.70;69.90
16517;DHT22;8371;52.272;9.746;2024-03-02T02:07:41;10.70;69.90
16517;DHT22;8371;52.272;9.746;2024-03-02T02:10:08;10.60;69.80
16517;DHT22;8371;52.272;9.746;2024-03-02T02:12:33;10.70;69.90
16517;DHT22;8371;52.272;9.746;2024-03-02T02:14:59;10.70;70.00
16517;DHT22;8371;52.272;9.746;2024-03-02T02:17:25;10.70;70.00
16517;DHT22;8371;52.272;9.746;2024-03-02T02:19:50;10.70;70.10
16517;DHT22;8371;52.272;9.746;2024-03-02T02:22:16;10.70;69.90
16517;DHT22;8371;52.272;9.746;2024-03-02T02:24:42;10.70;70.00
16517;DHT22;8371;52.272;9.746;2024-03-02T02:27:08;10.70;70.00
16517;DHT22;8371;52.272;9.746;2024-03-02T02:29:34;10.70;70.00
16517;DHT22;8371;52.272;9.746;2024-03-02T02:32:00;10.70;70.10
16517;DHT22;8371;52.272;9.746;2024-03-02T02:34:26;10.70;70.10
16517;DHT22;8371;52.272;9.746;2024-03-02T02:36:52;10.70;70.20
16517;DHT22;8371;52.272;9.746;2024-03-02T02:39:20;10.70;70.20
16517;DHT22;8371;52.272;9.746;2024-03-02T02:41:46;10.70;70.10
16517;DHT22;8371;52.272;9.746;2024-03-02T02:44:11;10.70;70.10
16517;DHT22;8371;52.272;9.746;2024-03-02T02:46:39;10.70;70.20
16517;DHT22;8371;52.272;9.746;2024-03-02T02:49:04;10.70;70.20
16517;DHT22;8371;52.272;9.746;2024-03-02T02:51:30;10.70;70.30
16517;DHT22;8371;52.272;9.746;2024-03-02T02:53:56;10.70;70.20
16517;DHT22;8371;52.272;9.746;2024-03-02T02:56:22;10.60;70.10
16517;DHT22;8371;52.272;9.746;2024-03-02T02:58:47;10.70;70.20
16517;DHT22;8371;52.272;9.746;2024-03-02T03:01:15;10.70;70.20
16517;DHT22;8371;52.272;9.746;2024-03-02T03:03:42;10.70;70.20
16517;DHT22;8371;52.272;9.746;2024-03-02T03:06:08;10.70;70.10
16517;DHT22;8371;52.272;9.746;2024-03-02T03:08:33;10.70;70.10
16517;DHT22;8371;52.272;9.746;2024-03-02T03:10:59;10.80;70.20
16517;DHT22;8371;52.272;9.746;2024-03-02T03:13:25;10.70;70.00
16517;DHT22;8371;52.272;9.746;2024-03-02T03:15:50;10.70;70.00
16517;DHT22;8371;52.272;9.746;2024-03-02T03:18:16;10.90;70.00
16517;DHT22;8371;52.272;9.746;2024-03-02T03:20:42;10.70;69.90
16517;DHT22;8371;52.272;9.746;2024-03-02T03:23:07;10.60;69.90
16517;DHT22;8371;52.272;9.746;2024-03-02T03:25:34;10.70;69.80
16517;DHT22;8371;52.272;9.746;2024-03-02T03:28:00;10.60;69.70
16517;DHT22;8371;52.272;9.746;2024-03-02T03:30:27;10.50;69.70
16517;DHT22;8371;52.272;9.746;2024-03-02T03:32:53;10.50;69.70
16517;DHT22;8371;52.272;9.746;2024-03-02T03:35:18;10.50;69.70
16517;DHT22;8371;52.272;9.746;2024-03-02T03:37:44;10.40;69.70
16517;DHT22;8371;52.272;9.746;2024-03-02T03:40:10;10.40;69.70
16517;DHT22;8371;52.272;9.746;2024-03-02T03:42:37;10.40;69.80
16517;DHT22;8371;52.272;9.746;2024-03-02T03:45:04;10.30;69.70
16517;DHT22;8371;52.272;9.746;2024-03-02T03:47:33;10.20;69.70
16517;DHT22;8371;52.272;9.746;2024-03-02T03:49:59;10.20;69.80
16517;DHT22;8371;52.272;9.746;2024-03-02T03:52:25;10.10;69.80
16517;DHT22;8371;52.272;9.746;2024-03-02T03:54:51;10.10;69.90
16517;DHT22;8371;52.272;9.746;2024-03-02T03:57:17;10.00;70.00
16517;DHT22;8371;52.272;9.746;2024-03-02T03:59:43;10.00;70.00
16517;DHT22;8371;52.272;9.746;2024-03-02T04:02:10;9.90;70.00
16517;DHT22;8371;52.272;9.746;2024-03-02T04:04:37;9.80;70.10
16517;DHT22;8371;52.272;9.746;2024-03-02T04:07:03;9.80;70.10
16517;DHT22;8371;52.272;9.746;2024-03-02T04:09:28;9.80;70.30
16517;DHT22;8371;52.272;9.746;2024-03-02T04:11:54;9.70;70.30
16517;DHT22;8371;52.272;9.746;2024-03-02T04:14:20;9.70;70.40
16517;DHT22;8371;52.272;9.746;2024-03-02T04:16:45;9.70;70.60
16517;DHT22;8371;52.272;9.746;2024-03-02T04:19:11;9.60;70.50
16517;DHT22;8371;52.272;9.746;2024-03-02T04:21:37;9.50;70.50
16517;DHT22;8371;52.272;9.746;2024-03-02T04:24:03;9.50;70.50
16517;DHT22;8371;52.272;9.746;2024-03-02T04:26:29;9.50;70.70
16517;DHT22;8371;52.272;9.746;2024-03-02T04:28:54;9.40;70.70
16517;DHT22;8371;52.272;9.746;2024-03-02T04:31:20;9.40;70.80
16517;DHT22;8371;52.272;9.746;2024-03-02T04:33:46;9.40;70.80
16517;DHT22;8371;52.272;9.746;2024-03-02T04:36:12;9.30;70.90
16517;DHT22;8371;52.272;9.746;2024-03-02T04:38:38;9.30;70.90
16517;DHT22;8371;52.272;9.746;2024-03-02T04:41:04;9.30;71.00
16517;DHT22;8371;52.272;9.746;2024-03-02T04:43:32;9.30;71.00
16517;DHT22;8371;52.272;9.746;2024-03-02T04:45:58;9.20;70.90
16517;DHT22;8371;52.272;9.746;2024-03-02T04:48:24;9.20;71.10
16517;DHT22;8371;52.272;9.746;2024-03-02T04:50:50;9.10;70.80
16517;DHT22;8371;52.272;9.746;2024-03-02T04:53:15;9.30;70.90
16517;DHT22;8371;52.272;9.746;2024-03-02T04:55:41;9.00;70.80
16517;DHT22;8371;52.272;9.746;2024-03-02T04:58:09;9.00;70.70
16517;DHT22;8371;52.272;9.746;2024-03-02T05:00:34;8.90;70.70
16517;DHT22;8371;52.272;9.746;2024-03-02T05:03:01;8.80;70.90
16517;DHT22;8371;52.272;9.746;2024-03-02T05:05:27;8.70;70.80
16517;DHT22;8371;52.272;9.746;2024-03-02T05:07:53;8.70;70.90
16517;DHT22;8371;52.272;9.746;2024-03-02T05:10:18;8.60;70.90
16517;DHT22;8371;52.272;9.746;2024-03-02T05:12:44;8.50;71.00
16517;DHT22;8371;52.272;9.746;2024-03-02T05:15:13;8.50;71.20
16517;DHT22;8371;52.272;9.746;2024-03-02T05:17:40;8.40;71.30
16517;DHT22;8371;52.272;9.746;2024-03-02T05:20:08;8.30;71.40
16517;DHT22;8371;52.272;9.746;2024-03-02T05:22:35;8.30;71.60
16517;DHT22;8371;52.272;9.746;2024-03-02T05:25:02;8.20;71.60
16517;DHT22;8371;52.272;9.746;2024-03-02T05:27:27;8.20;71.70
16517;DHT22;8371;52.272;9.746;2024-03-02T05:29:53;8.20;71.80
16517;DHT22;8371;52.272;9.746;2024-03-02T05:32:19;8.10;72.10
16517;DHT22;8371;52.272;9.746;2024-03-02T05:34:44;8.10;72.10
16517;DHT22;8371;52.272;9.746;2024-03-02T05:37:10;8.10;72.20
16517;DHT22;8371;52.272;9.746;2024-03-02T05:39:36;8.00;72.10
16517;DHT22;8371;52.272;9.746;2024-03-02T05:42:02;8.00;72.10
16517;DHT22;8371;52.272;9.746;2024-03-02T05:44:28;7.90;72.20
16517;DHT22;8371;52.272;9.746;2024-03-02T05:46:55;7.90;71.80
16517;DHT22;8371;52.272;9.746;2024-03-02T05:49:20;7.80;71.70
16517;DHT22;8371;52.272;9.746;2024-03-02T05:51:46;7.70;71.60
16517;DHT22;8371;52.272;9.746;2024-03-02T05:54:12;7.70;71.70
16517;DHT22;8371;52.272;9.746;2024-03-02T05:56:38;7.60;71.90
16517;DHT22;8371;52.272;9.746;2024-03-02T05:59:03;7.50;72.00
16517;DHT22;8371;52.272;9.746;2024-03-02T06:01:37;7.50;72.30
16517;DHT22;8371;52.272;9.746;2024-03-02T06:04:03;7.40;72.40
16517;DHT22;8371;52.272;9.746;2024-03-02T06:06:28;7.40;72.50
16517;DHT22;8371;52.272;9.746;2024-03-02T06:08:54;7.40;72.80
16517;DHT22;8371;52.272;9.746;2024-03-02T06:11:20;7.30;73.00
16517;DHT22;8371;52.272;9.746;2024-03-02T06:13:46;7.30;73.10
16517;DHT22;8371;52.272;9.746;2024-03-02T06:16:12;7.30;73.40
16517;DHT22;8371;52.272;9.746;2024-03-02T06:18:37;7.30;73.70
16517;DHT22;8371;52.272;9.746;2024-03-02T06:21:03;7.40;73.80
16517;DHT22;8371;52.272;9.746;2024-03-02T06:23:29;7.40;74.10
16517;DHT22;8371;52.272;9.746;2024-03-02T06:25:55;7.40;74.20
16517;DHT22;8371;52.272;9.746;2024-03-02T06:28:21;7.50;74.20
16517;DHT22;8371;52.272;9.746;2024-03-02T06:30:46;7.50;74.20
16517;DHT22;8371;52.272;9.746;2024-03-02T06:33:12;7.50;74.30
16517;DHT22;8371;52.272;9.746;2024-03-02T06:35:38;7.60;74.40
16517;DHT22;8371;52.272;9.746;2024-03-02T06:38:04;7.60;74.50
16517;DHT22;8371;52.272;9.746;2024-03-02T06:40:30;7.60;74.60
16517;DHT22;8371;52.272;9.746;2024-03-02T06:42:56;7.70;74.70
16517;DHT22;8371;52.272;9.746;2024-03-02T06:45:21;7.80;74.90
16517;DHT22;8371;52.272;9.746;2024-03-02T06:47:47;7.80;75.10
16517;DHT22;8371;52.272;9.746;2024-03-02T06:50:12;7.90;75.20
16517;DHT22;8371;52.272;9.746;2024-03-02T06:52:38;8.00;75.30
16517;DHT22;8371;52.272;9.746;2024-03-02T06:55:04;8.10;75.50
16517;DHT22;8371;52.272;9.746;2024-03-02T06:57:31;8.10;75.50
16517;DHT22;8371;52.272;9.746;2024-03-02T06:59:56;8.20;75.50
16517;DHT22;8371;52.272;9.746;2024-03-02T07:02:27;8.30;75.60
16517;DHT22;8371;52.272;9.746;2024-03-02T07:04:53;8.40;75.70
16517;DHT22;8371;52.272;9.746;2024-03-02T07:07:21;8.50;75.70
16517;DHT22;8371;52.272;9.746;2024-03-02T07:09:47;8.60;75.80
16517;DHT22;8371;52.272;9.746;2024-03-02T07:12:15;8.70;75.80
16517;DHT22;8371;52.272;9.746;2024-03-02T07:14:41;8.80;75.80
16517;DHT22;8371;52.272;9.746;2024-03-02T07:17:21;8.90;75.70
16517;DHT22;8371;52.272;9.746;2024-03-02T07:19:46;9.00;75.50
16517;DHT22;8371;52.272;9.746;2024-03-02T07:22:13;9.10;75.40
16517;DHT22;8371;52.272;9.746;2024-03-02T07:24:43;9.20;75.40
16517;DHT22;8371;52.272;9.746;2024-03-02T07:27:08;9.30;75.40
16517;DHT22;8371;52.272;9.746;2024-03-02T07:29:34;9.40;75.40
16517;DHT22;8371;52.272;9.746;2024-03-02T07:31:59;9.50;75.40
16517;DHT22;8371;52.272;9.746;2024-03-02T07:34:25;9.60;75.40
16517;DHT22;8371;52.272;9.746;2024-03-02T07:36:51;9.70;75.30
16517;DHT22;8371;52.272;9.746;2024-03-02T07:39:17;9.80;75.20
16517;DHT22;8371;52.272;9.746;2024-03-02T07:41:42;9.80;75.10
16517;DHT22;8371;52.272;9.746;2024-03-02T07:44:09;9.90;75.10
16517;DHT22;8371;52.272;9.746;2024-03-02T07:46:34;10.00;75.10
16517;DHT22;8371;52.272;9.746;2024-03-02T07:49:00;10.10;75.20
16517;DHT22;8371;52.272;9.746;2024-03-02T07:51:26;10.10;75.10
16517;DHT22;8371;52.272;9.746;2024-03-02T07:53:51;10.20;75.10
16517;DHT22;8371;52.272;9.746;2024-03-02T07:56:17;10.30;75.10
16517;DHT22;8371;52.272;9.746;2024-03-02T07:58:45;10.30;75.00
16517;DHT22;8371;52.272;9.746;2024-03-02T08:01:11;10.40;75.00
16517;DHT22;8371;52.272;9.746;2024-03-02T08:03:37;10.40;75.10
16517;DHT22;8371;52.272;9.746;2024-03-02T08:06:03;10.50;75.00
16517;DHT22;8371;52.272;9.746;2024-03-02T08:08:29;10.60;75.00
16517;DHT22;8371;52.272;9.746;2024-03-02T08:10:55;10.70;75.20
16517;DHT22;8371;52.272;9.746;2024-03-02T08:13:20;10.80;75.10
16517;DHT22;8371;52.272;9.746;2024-03-02T08:15:46;10.90;75.20
16517;DHT22;8371;52.272;9.746;2024-03-02T08:18:12;11.00;75.10
16517;DHT22;8371;52.272;9.746;2024-03-02T08:20:38;11.10;75.20
16517;DHT22;8371;52.272;9.746;2024-03-02T08:23:04;11.20;75.10
16517;DHT22;8371;52.272;9.746;2024-03-02T08:25:30;11.30;75.20
16517;DHT22;8371;52.272;9.746;2024-03-02T08:27:56;11.40;75.10
16517;DHT22;8371;52.272;9.746;2024-03-02T08:30:22;11.60;75.10
16517;DHT22;8371;52.272;9.746;2024-03-02T08:32:47;11.70;74.90
16517;DHT22;8371;52.272;9.746;2024-03-02T08:35:13;11.80;74.80
16517;DHT22;8371;52.272;9.746;2024-03-02T08:37:41;11.90;74.60
16517;DHT22;8371;52.272;9.746;2024-03-02T08:40:08;12.10;74.60
16517;DHT22;8371;52.272;9.746;2024-03-02T08:42:34;12.20;74.40
16517;DHT22;8371;52.272;9.746;2024-03-02T08:45:00;12.40;74.30
16517;DHT22;8371;52.272;9.746;2024-03-02T08:47:28;12.50;74.20
16517;DHT22;8371;52.272;9.746;2024-03-02T08:49:54;12.60;74.00
16517;DHT22;8371;52.272;9.746;2024-03-02T08:52:20;12.70;73.90
16517;DHT22;8371;52.272;9.746;2024-03-02T08:54:45;12.80;73.80
16517;DHT22;8371;52.272;9.746;2024-03-02T08:57:11;12.90;73.70
16517;DHT22;8371;52.272;9.746;2024-03-02T08:59:37;13.10;73.60
16517;DHT22;8371;52.272;9.746;2024-03-02T09:02:03;13.20;73.50
16517;DHT22;8371;52.272;9.746;2024-03-02T09:04:29;13.30;73.40
16517;DHT22;8371;52.272;9.746;2024-03-02T09:06:54;13.40;73.90
16517;DHT22;8371;52.272;9.746;2024-03-02T09:09:20;13.50;73.10
16517;DHT22;8371;52.272;9.746;2024-03-02T09:11:46;13.70;72.90
16517;DHT22;8371;52.272;9.746;2024-03-02T09:14:12;13.80;72.70
16517;DHT22;8371;52.272;9.746;2024-03-02T09:16:40;13.90;72.70
16517;DHT22;8371;52.272;9.746;2024-03-02T09:19:06;14.00;72.50
16517;DHT22;8371;52.272;9.746;2024-03-02T09:21:31;14.10;72.20
16517;DHT22;8371;52.272;9.746;2024-03-02T09:23:57;14.20;72.30
16517;DHT22;8371;52.272;9.746;2024-03-02T09:26:23;14.30;72.00
16517;DHT22;8371;52.272;9.746;2024-03-02T09:28:50;14.40;71.90
16517;DHT22;8371;52.272;9.746;2024-03-02T09:31:16;14.50;71.70
16517;DHT22;8371;52.272;9.746;2024-03-02T09:33:42;14.60;71.70
16517;DHT22;8371;52.272;9.746;2024-03-02T09:36:19;14.70;71.50
16517;DHT22;8371;52.272;9.746;2024-03-02T09:38:45;14.80;71.30
16517;DHT22;8371;52.272;9.746;2024-03-02T09:41:10;14.90;71.20
16517;DHT22;8371;52.272;9.746;2024-03-02T09:43:36;15.00;71.20
16517;DHT22;8371;52.272;9.746;2024-03-02T09:46:03;15.00;71.00
16517;DHT22;8371;52.272;9.746;2024-03-02T09:48:29;15.10;70.90
16517;DHT22;8371;52.272;9.746;2024-03-02T09:50:55;15.30;70.90
16517;DHT22;8371;52.272;9.746;2024-03-02T09:53:22;15.30;70.90
16517;DHT22;8371;52.272;9.746;2024-03-02T09:55:48;15.40;70.80
16517;DHT22;8371;52.272;9.746;2024-03-02T09:58:14;15.50;70.70
16517;DHT22;8371;52.272;9.746;2024-03-02T10:00:40;15.60;70.60
16517;DHT22;8371;52.272;9.746;2024-03-02T10:03:11;15.70;70.40
16517;DHT22;8371;52.272;9.746;2024-03-02T10:05:35;15.80;70.30
16517;DHT22;8371;52.272;9.746;2024-03-02T10:08:01;15.90;70.20
16517;DHT22;8371;52.272;9.746;2024-03-02T10:10:35;16.00;70.00
16517;DHT22;8371;52.272;9.746;2024-03-02T10:13:05;16.10;69.90
16517;DHT22;8371;52.272;9.746;2024-03-02T10:15:32;16.20;69.90
16517;DHT22;8371;52.272;9.746;2024-03-02T10:17:57;16.30;69.70
16517;DHT22;8371;52.272;9.746;2024-03-02T10:20:26;16.40;69.60
16517;DHT22;8371;52.272;9.746;2024-03-02T10:22:55;16.40;69.50
16517;DHT22;8371;52.272;9.746;2024-03-02T10:25:31;16.50;69.30
16517;DHT22;8371;52.272;9.746;2024-03-02T10:28:00;16.70;69.30
16517;DHT22;8371;52.272;9.746;2024-03-02T10:30:27;16.80;69.10
16517;DHT22;8371;52.272;9.746;2024-03-02T10:32:54;16.90;69.10
16517;DHT22;8371;52.272;9.746;2024-03-02T10:35:25;17.00;68.90
16517;DHT22;8371;52.272;9.746;2024-03-02T10:37:52;17.10;68.90
16517;DHT22;8371;52.272;9.746;2024-03-02T10:40:23;17.20;68.70
16517;DHT22;8371;52.272;9.746;2024-03-02T10:42:52;17.30;68.50
16517;DHT22;8371;52.272;9.746;2024-03-02T10:45:19;17.50;68.30
16517;DHT22;8371;52.272;9.746;2024-03-02T10:47:46;17.60;68.20
16517;DHT22;8371;52.272;9.746;2024-03-02T10:50:12;17.80;68.00
16517;DHT22;8371;52.272;9.746;2024-03-02T10:52:38;17.90;67.80
16517;DHT22;8371;52.272;9.746;2024-03-02T10:55:06;18.10;67.50
16517;DHT22;8371;52.272;9.746;2024-03-02T10:57:36;18.20;67.20
16517;DHT22;8371;52.272;9.746;2024-03-02T11:00:03;18.30;67.20
16517;DHT22;8371;52.272;9.746;2024-03-02T11:02:30;18.40;66.90
16517;DHT22;8371;52.272;9.746;2024-03-02T11:04:56;18.80;66.40
16517;DHT22;8371;52.272;9.746;2024-03-02T11:07:24;18.70;66.20
16517;DHT22;8371;52.272;9.746;2024-03-02T11:09:57;18.80;66.10
16517;DHT22;8371;52.272;9.746;2024-03-02T11:12:36;18.90;65.90
16517;DHT22;8371;52.272;9.746;2024-03-02T11:15:04;19.00;65.80
16517;DHT22;8371;52.272;9.746;2024-03-02T11:17:32;19.10;65.40
16517;DHT22;8371;52.272;9.746;2024-03-02T11:19:58;19.20;65.20
16517;DHT22;8371;52.272;9.746;2024-03-02T11:22:24;19.20;64.70
16517;DHT22;8371;52.272;9.746;2024-03-02T11:24:52;19.30;64.50
16517;DHT22;8371;52.272;9.746;2024-03-02T11:27:58;19.30;64.20
16517;DHT22;8371;52.272;9.746;2024-03-02T11:32:56;19.40;63.50
16517;DHT22;8371;52.272;9.746;2024-03-02T11:35:24;19.40;63.50
16517;DHT22;8371;52.272;9.746;2024-03-02T11:37:51;19.40;63.50
16517;DHT22;8371;52.272;9.746;2024-03-02T11:40:24;19.40;63.40
16517;DHT22;8371;52.272;9.746;2024-03-02T11:42:50;19.40;63.30
16517;DHT22;8371;52.272;9.746;2024-03-02T11:45:17;19.50;63.10
16517;DHT22;8371;52.272;9.746;2024-03-02T11:48:00;19.40;63.80
16517;DHT22;8371;52.272;9.746;2024-03-02T11:50:34;19.40;62.90
16517;DHT22;8371;52.272;9.746;2024-03-02T11:53:01;19.40;62.70
16517;DHT22;8371;52.272;9.746;2024-03-02T11:55:28;19.40;62.70
16517;DHT22;8371;52.272;9.746;2024-03-02T11:57:55;19.50;62.70
16517;DHT22;8371;52.272;9.746;2024-03-02T12:00:21;19.50;62.80
16517;DHT22;8371;52.272;9.746;2024-03-02T12:02:59;19.60;62.80
16517;DHT22;8371;52.272;9.746;2024-03-02T12:05:16;19.70;62.90
16517;DHT22;8371;52.272;9.746;2024-03-02T12:07:42;19.80;62.60
16517;DHT22;8371;52.272;9.746;2024-03-02T12:10:08;19.90;62.40
16517;DHT22;8371;52.272;9.746;2024-03-02T12:12:34;20.00;62.30
16517;DHT22;8371;52.272;9.746;2024-03-02T12:15:00;20.10;61.90
16517;DHT22;8371;52.272;9.746;2024-03-02T12:17:26;20.20;61.60
16517;DHT22;8371;52.272;9.746;2024-03-02T12:19:52;20.20;61.00
16517;DHT22;8371;52.272;9.746;2024-03-02T12:22:18;20.30;60.80
16517;DHT22;8371;52.272;9.746;2024-03-02T12:24:44;20.30;60.50
16517;DHT22;8371;52.272;9.746;2024-03-02T12:27:14;20.30;60.40
16517;DHT22;8371;52.272;9.746;2024-03-02T12:29:40;20.30;60.20
16517;DHT22;8371;52.272;9.746;2024-03-02T12:32:06;20.30;60.20
16517;DHT22;8371;52.272;9.746;2024-03-02T12:34:32;20.40;60.80
16517;DHT22;8371;52.272;9.746;2024-03-02T12:36:58;20.40;59.80
16517;DHT22;8371;52.272;9.746;2024-03-02T12:39:24;20.40;59.70
16517;DHT22;8371;52.272;9.746;2024-03-02T12:41:50;20.40;59.50
16517;DHT22;8371;52.272;9.746;2024-03-02T12:44:18;20.40;59.50
16517;DHT22;8371;52.272;9.746;2024-03-02T12:46:44;20.40;59.60
16517;DHT22;8371;52.272;9.746;2024-03-02T12:49:11;20.40;59.50
16517;DHT22;8371;52.272;9.746;2024-03-02T12:51:38;20.40;59.50
16517;DHT22;8371;52.272;9.746;2024-03-02T12:54:07;20.50;59.50
16517;DHT22;8371;52.272;9.746;2024-03-02T12:56:33;20.50;59.20
16517;DHT22;8371;52.272;9.746;2024-03-02T12:58:59;20.50;59.00
16517;DHT22;8371;52.272;9.746;2024-03-02T13:01:25;20.40;58.80
16517;DHT22;8371;52.272;9.746;2024-03-02T13:03:52;20.60;58.20
16517;DHT22;8371;52.272;9.746;2024-03-02T13:06:19;20.60;58.40
16517;DHT22;8371;52.272;9.746;2024-03-02T13:08:45;20.60;58.20
16517;DHT22;8371;52.272;9.746;2024-03-02T13:11:13;20.70;58.00
16517;DHT22;8371;52.272;9.746;2024-03-02T13:13:42;20.70;57.90
16517;DHT22;8371;52.272;9.746;2024-03-02T13:16:11;20.60;57.80
16517;DHT22;8371;52.272;9.746;2024-03-02T13:18:41;20.60;57.90
16517;DHT22;8371;52.272;9.746;2024-03-02T13:21:07;20.60;57.80
16517;DHT22;8371;52.272;9.746;2024-03-02T13:23:34;20.60;57.80
16517;DHT22;8371;52.272;9.746;2024-03-02T13:25:59;20.50;57.70
16517;DHT22;8371;52.272;9.746;2024-03-02T13:28:25;20.50;57.80
16517;DHT22;8371;52.272;9.746;2024-03-02T13:30:51;20.50;57.70
16517;DHT22;8371;52.272;9.746;2024-03-02T13:33:17;20.50;57.60
16517;DHT22;8371;52.272;9.746;2024-03-02T13:35:50;20.50;58.10
16517;DHT22;8371;52.272;9.746;2024-03-02T13:38:17;20.50;57.50
16517;DHT22;8371;52.272;9.746;2024-03-02T13:40:43;20.50;57.50
16517;DHT22;8371;52.272;9.746;2024-03-02T13:43:09;20.50;57.40
16517;DHT22;8371;52.272;9.746;2024-03-02T13:45:35;20.50;57.40
16517;DHT22;8371;52.272;9.746;2024-03-02T13:48:02;20.50;58.10
16517;DHT22;8371;52.272;9.746;2024-03-02T13:50:28;20.50;57.20
16517;DHT22;8371;52.272;9.746;2024-03-02T13:52:55;20.50;57.20
16517;DHT22;8371;52.272;9.746;2024-03-02T13:55:21;20.50;56.70
16517;DHT22;8371;52.272;9.746;2024-03-02T13:57:47;20.40;56.60
16517;DHT22;8371;52.272;9.746;2024-03-02T14:00:14;20.40;56.80
16517;DHT22;8371;52.272;9.746;2024-03-02T14:02:41;20.40;56.60
16517;DHT22;8371;52.272;9.746;2024-03-02T14:05:07;20.30;56.60
16517;DHT22;8371;52.272;9.746;2024-03-02T14:07:34;20.30;56.50
16517;DHT22;8371;52.272;9.746;2024-03-02T14:10:00;20.20;56.30
16517;DHT22;8371;52.272;9.746;2024-03-02T14:12:26;20.20;56.20
16517;DHT22;8371;52.272;9.746;2024-03-02T14:14:51;20.00;56.20
16517;DHT22;8371;52.272;9.746;2024-03-02T14:17:19;20.00;56.10
16517;DHT22;8371;52.272;9.746;2024-03-02T14:19:44;19.90;56.10
16517;DHT22;8371;52.272;9.746;2024-03-02T14:22:10;19.80;56.10
16517;DHT22;8371;52.272;9.746;2024-03-02T14:24:38;19.70;56.30
16517;DHT22;8371;52.272;9.746;2024-03-02T14:27:04;19.70;56.30
16517;DHT22;8371;52.272;9.746;2024-03-02T14:29:30;19.60;56.30
16517;DHT22;8371;52.272;9.746;2024-03-02T14:31:56;19.60;56.30
16517;DHT22;8371;52.272;9.746;2024-03-02T14:34:22;19.60;56.30
16517;DHT22;8371;52.272;9.746;2024-03-02T14:36:48;19.50;56.20
16517;DHT22;8371;52.272;9.746;2024-03-02T14:39:13;19.50;56.00
16517;DHT22;8371;52.272;9.746;2024-03-02T14:41:39;19.50;56.20
16517;DHT22;8371;52.272;9.746;2024-03-02T14:44:05;19.50;56.20
16517;DHT22;8371;52.272;9.746;2024-03-02T14:46:30;19.50;56.80
16517;DHT22;8371;52.272;9.746;2024-03-02T14:48:56;19.40;56.10
16517;DHT22;8371;52.272;9.746;2024-03-02T14:51:22;19.40;56.50
16517;DHT22;8371;52.272;9.746;2024-03-02T14:53:48;19.40;56.00
16517;DHT22;8371;52.272;9.746;2024-03-02T14:56:13;19.40;56.00
16517;DHT22;8371;52.272;9.746;2024-03-02T14:58:39;19.30;55.90
16517;DHT22;8371;52.272;9.746;2024-03-02T15:01:05;19.30;55.90
16517;DHT22;8371;52.272;9.746;2024-03-02T15:03:31;19.30;56.10
16517;DHT22;8371;52.272;9.746;2024-03-02T15:05:57;19.30;56.20
16517;DHT22;8371;52.272;9.746;2024-03-02T15:08:23;19.30;56.20
16517;DHT22;8371;52.272;9.746;2024-03-02T15:10:49;19.30;56.30
16517;DHT22;8371;52.272;9.746;2024-03-02T15:13:15;19.40;56.20
16517;DHT22;8371;52.272;9.746;2024-03-02T15:15:40;19.30;56.10
16517;DHT22;8371;52.272;9.746;2024-03-02T15:18:06;19.40;56.20
16517;DHT22;8371;52.272;9.746;2024-03-02T15:20:33;19.40;56.00
16517;DHT22;8371;52.272;9.746;2024-03-02T15:22:59;19.40;55.70
16517;DHT22;8371;52.272;9.746;2024-03-02T15:25:24;19.40;55.60
16517;DHT22;8371;52.272;9.746;2024-03-02T15:27:50;19.40;55.60
16517;DHT22;8371;52.272;9.746;2024-03-02T15:30:16;19.40;55.70
16517;DHT22;8371;52.272;9.746;2024-03-02T15:32:42;19.40;55.80
16517;DHT22;8371;52.272;9.746;2024-03-02T15:35:08;19.40;55.70
16517;DHT22;8371;52.272;9.746;2024-03-02T15:37:34;19.40;55.60
16517;DHT22;8371;52.272;9.746;2024-03-02T15:39:59;19.40;55.60
16517;DHT22;8371;52.272;9.746;2024-03-02T15:42:27;19.50;55.50
16517;DHT22;8371;52.272;9.746;2024-03-02T15:44:53;19.50;55.40
16517;DHT22;8371;52.272;9.746;2024-03-02T15:47:19;19.50;55.50